sensor_id;sensor_type;location;lat;lon;timestamp;P1;durP1;ratioP1;P2;durP2;ratioP2
25854;SDS011;13680;49.936;11.344;2022-07-23T00:01:22;16.80;;;7.45;;
25854;SDS011;13680;49.936;11.344;2022-07-23T00:03:48;13.68;;;6.90;;
25854;SDS011;13680;49.936;11.344;2022-07-23T00:06:15;12.93;;;7.30;;
25854;SDS011;13680;49.936;11.344;2022-07-23T00:08:41;11.38;;;7.22;;
25854;SDS011;13680;49.936;11.344;2022-07-23T00:11:07;13.35;;;8.02;;
25854;SDS011;13680;49.936;11.344;2022-07-23T00:13:32;13.20;;;7.63;;
25854;SDS011;13680;49.936;11.344;2022-07-23T00:15:58;10.75;;;7.35;;
25854;SDS011;13680;49.936;11.344;2022-07-23T00:18:23;9.70;;;6.97;;
25854;SDS011;13680;49.936;11.344;2022-07-23T00:20:48;9.55;;;7.60;;
25854;SDS011;13680;49.936;11.344;2022-07-23T00:23:14;9.68;;;7.70;;
25854;SDS011;13680;49.936;11.344;2022-07-23T00:25:40;11.52;;;7.75;;
25854;SDS011;13680;49.936;11.344;2022-07-23T00:28:05;12.57;;;7.72;;
25854;SDS011;13680;49.936;11.344;2022-07-23T00:30:31;15.00;;;7.43;;
25854;SDS011;13680;49.936;11.344;2022-07-23T00:32:58;10.43;;;6.85;;
25854;SDS011;13680;49.936;11.344;2022-07-23T00:35:26;10.50;;;6.82;;
25854;SDS011;13680;49.936;11.344;2022-07-23T00:37:53;11.65;;;6.90;;
25854;SDS011;13680;49.936;11.344;2022-07-23T00:40:19;9.00;;;7.22;;
25854;SDS011;13680;49.936;11.344;2022-07-23T00:42:45;17.90;;;8.13;;
25854;SDS011;13680;49.936;11.344;2022-07-23T00:45:11;9.57;;;7.50;;
25854;SDS011;13680;49.936;11.344;2022-07-23T00:47:36;9.43;;;7.30;;
25854;SDS011;13680;49.936;11.344;2022-07-23T00:50:05;9.55;;;8.10;;
25854;SDS011;13680;49.936;11.344;2022-07-23T00:52:32;11.38;;;7.85;;
25854;SDS011;13680;49.936;11.344;2022-07-23T00:54:58;10.82;;;7.20;;
25854;SDS011;13680;49.936;11.344;2022-07-23T00:57:24;11.23;;;7.38;;
25854;SDS011;13680;49.936;11.344;2022-07-23T00:59:50;9.77;;;7.63;;
25854;SDS011;13680;49.936;11.344;2022-07-23T01:02:16;9.13;;;7.32;;
25854;SDS011;13680;49.936;11.344;2022-07-23T01:04:41;8.07;;;7.15;;
25854;SDS011;13680;49.936;11.344;2022-07-23T01:07:06;12.45;;;7.55;;
25854;SDS011;13680;49.936;11.344;2022-07-23T01:09:32;9.57;;;7.00;;
25854;SDS011;13680;49.936;11.344;2022-07-23T01:11:57;9.20;;;7.18;;
25854;SDS011;13680;49.936;11.344;2022-07-23T01:14:23;9.32;;;7.43;;
25854;SDS011;13680;49.936;11.344;2022-07-23T01:16:49;11.20;;;7.57;;
25854;SDS011;13680;49.936;11.344;2022-07-23T01:19:15;10.77;;;6.72;;
25854;SDS011;13680;49.936;11.344;2022-07-23T01:21:47;10.02;;;6.40;;
25854;SDS011;13680;49.936;11.344;2022-07-23T01:24:14;7.35;;;6.25;;
25854;SDS011;13680;49.936;11.344;2022-07-23T01:26:41;11.20;;;7.53;;
25854;SDS011;13680;49.936;11.344;2022-07-23T01:29:08;11.98;;;7.20;;
25854;SDS011;13680;49.936;11.344;2022-07-23T01:31:34;10.18;;;7.28;;
25854;SDS011;13680;49.936;11.344;2022-07-23T01:34:00;12.63;;;7.50;;
25854;SDS011;13680;49.936;11.344;2022-07-23T01:36:25;11.60;;;6.65;;
25854;SDS011;13680;49.936;11.344;2022-07-23T01:38:51;9.85;;;6.75;;
25854;SDS011;13680;49.936;11.344;2022-07-23T01:41:16;7.97;;;6.68;;
25854;SDS011;13680;49.936;11.344;2022-07-23T01:43:42;13.07;;;7.00;;
25854;SDS011;13680;49.936;11.344;2022-07-23T01:46:07;11.57;;;7.03;;
25854;SDS011;13680;49.936;11.344;2022-07-23T01:48:33;10.05;;;6.53;;
25854;SDS011;13680;49.936;11.344;2022-07-23T01:50:58;9.10;;;6.78;;
25854;SDS011;13680;49.936;11.344;2022-07-23T01:53:24;11.98;;;6.47;;
25854;SDS011;13680;49.936;11.344;2022-07-23T01:55:49;10.25;;;6.30;;
25854;SDS011;13680;49.936;11.344;2022-07-23T01:58:14;10.90;;;6.90;;
25854;SDS011;13680;49.936;11.344;2022-07-23T02:00:40;9.90;;;6.97;;
25854;SDS011;13680;49.936;11.344;2022-07-23T02:03:05;8.77;;;6.50;;
25854;SDS011;13680;49.936;11.344;2022-07-23T02:05:31;8.40;;;6.82;;
25854;SDS011;13680;49.936;11.344;2022-07-23T02:07:59;10.75;;;6.43;;
25854;SDS011;13680;49.936;11.344;2022-07-23T02:10:25;8.40;;;6.57;;
25854;SDS011;13680;49.936;11.344;2022-07-23T02:12:51;12.00;;;6.57;;
25854;SDS011;13680;49.936;11.344;2022-07-23T02:15:17;8.90;;;6.38;;
25854;SDS011;13680;49.936;11.344;2022-07-23T02:17:42;7.75;;;5.40;;
25854;SDS011;13680;49.936;11.344;2022-07-23T02:20:08;11.82;;;6.13;;
25854;SDS011;13680;49.936;11.344;2022-07-23T02:22:34;7.30;;;6.60;;
25854;SDS011;13680;49.936;11.344;2022-07-23T02:25:01;6.93;;;5.90;;
25854;SDS011;13680;49.936;11.344;2022-07-23T02:27:26;8.70;;;6.15;;
25854;SDS011;13680;49.936;11.344;2022-07-23T02:29:53;9.55;;;6.07;;
25854;SDS011;13680;49.936;11.344;2022-07-23T02:32:19;8.45;;;5.70;;
25854;SDS011;13680;49.936;11.344;2022-07-23T02:34:46;7.78;;;6.03;;
25854;SDS011;13680;49.936;11.344;2022-07-23T02:37:12;7.82;;;5.97;;
25854;SDS011;13680;49.936;11.344;2022-07-23T02:39:37;9.70;;;6.40;;
25854;SDS011;13680;49.936;11.344;2022-07-23T02:42:03;7.45;;;6.15;;
25854;SDS011;13680;49.936;11.344;2022-07-23T02:44:29;7.00;;;6.15;;
25854;SDS011;13680;49.936;11.344;2022-07-23T02:46:54;9.55;;;6.30;;
25854;SDS011;13680;49.936;11.344;2022-07-23T02:49:19;9.68;;;5.93;;
25854;SDS011;13680;49.936;11.344;2022-07-23T02:51:45;7.65;;;6.28;;
25854;SDS011;13680;49.936;11.344;2022-07-23T02:54:10;8.85;;;6.18;;
25854;SDS011;13680;49.936;11.344;2022-07-23T02:56:35;10.52;;;6.47;;
25854;SDS011;13680;49.936;11.344;2022-07-23T02:59:01;7.07;;;5.88;;
25854;SDS011;13680;49.936;11.344;2022-07-23T03:01:26;7.93;;;6.68;;
25854;SDS011;13680;49.936;11.344;2022-07-23T03:03:52;7.28;;;5.65;;
25854;SDS011;13680;49.936;11.344;2022-07-23T03:06:17;11.18;;;6.53;;
25854;SDS011;13680;49.936;11.344;2022-07-23T03:08:42;10.82;;;6.88;;
25854;SDS011;13680;49.936;11.344;2022-07-23T03:11:08;9.55;;;6.93;;
25854;SDS011;13680;49.936;11.344;2022-07-23T03:13:36;9.43;;;6.35;;
25854;SDS011;13680;49.936;11.344;2022-07-23T03:16:02;10.07;;;6.55;;
25854;SDS011;13680;49.936;11.344;2022-07-23T03:18:28;7.68;;;6.00;;
25854;SDS011;13680;49.936;11.344;2022-07-23T03:20:53;10.68;;;6.47;;
25854;SDS011;13680;49.936;11.344;2022-07-23T03:23:19;8.82;;;6.10;;
25854;SDS011;13680;49.936;11.344;2022-07-23T03:25:44;7.13;;;6.43;;
25854;SDS011;13680;49.936;11.344;2022-07-23T03:28:11;9.65;;;6.15;;
25854;SDS011;13680;49.936;11.344;2022-07-23T03:30:37;8.05;;;5.75;;
25854;SDS011;13680;49.936;11.344;2022-07-23T03:33:02;8.15;;;5.88;;
25854;SDS011;13680;49.936;11.344;2022-07-23T03:35:27;7.55;;;5.82;;
25854;SDS011;13680;49.936;11.344;2022-07-23T03:37:53;6.63;;;5.72;;
25854;SDS011;13680;49.936;11.344;2022-07-23T03:40:18;8.30;;;5.90;;
25854;SDS011;13680;49.936;11.344;2022-07-23T03:42:43;9.25;;;5.93;;
25854;SDS011;13680;49.936;11.344;2022-07-23T03:45:10;13.45;;;6.47;;
25854;SDS011;13680;49.936;11.344;2022-07-23T03:47:36;8.88;;;6.65;;
25854;SDS011;13680;49.936;11.344;2022-07-23T03:50:02;7.75;;;6.00;;
25854;SDS011;13680;49.936;11.344;2022-07-23T03:52:28;9.57;;;6.93;;
25854;SDS011;13680;49.936;11.344;2022-07-23T03:54:53;13.52;;;7.05;;
25854;SDS011;13680;49.936;11.344;2022-07-23T03:57:18;8.20;;;6.55;;
25854;SDS011;13680;49.936;11.344;2022-07-23T03:59:44;7.03;;;6.30;;
25854;SDS011;13680;49.936;11.344;2022-07-23T04:02:09;10.13;;;6.97;;
25854;SDS011;13680;49.936;11.344;2022-07-23T04:04:35;8.60;;;6.93;;
25854;SDS011;13680;49.936;11.344;2022-07-23T04:07:00;10.88;;;7.18;;
25854;SDS011;13680;49.936;11.344;2022-07-23T04:09:26;10.88;;;6.60;;
25854;SDS011;13680;49.936;11.344;2022-07-23T04:11:51;11.80;;;6.45;;
25854;SDS011;13680;49.936;11.344;2022-07-23T04:14:17;12.90;;;7.05;;
25854;SDS011;13680;49.936;11.344;2022-07-23T04:16:42;10.63;;;6.13;;
25854;SDS011;13680;49.936;11.344;2022-07-23T04:19:07;8.30;;;6.15;;
25854;SDS011;13680;49.936;11.344;2022-07-23T04:21:33;10.23;;;6.88;;
25854;SDS011;13680;49.936;11.344;2022-07-23T04:23:58;9.63;;;6.50;;
25854;SDS011;13680;49.936;11.344;2022-07-23T04:26:23;8.75;;;6.55;;
25854;SDS011;13680;49.936;11.344;2022-07-23T04:28:49;9.05;;;6.07;;
25854;SDS011;13680;49.936;11.344;2022-07-23T04:31:14;10.35;;;6.63;;
25854;SDS011;13680;49.936;11.344;2022-07-23T04:33:40;12.27;;;6.63;;
25854;SDS011;13680;49.936;11.344;2022-07-23T04:36:05;11.43;;;6.70;;
25854;SDS011;13680;49.936;11.344;2022-07-23T04:38:31;10.45;;;6.90;;
25854;SDS011;13680;49.936;11.344;2022-07-23T04:40:57;10.00;;;7.50;;
25854;SDS011;13680;49.936;11.344;2022-07-23T04:43:23;7.40;;;6.65;;
25854;SDS011;13680;49.936;11.344;2022-07-23T04:45:48;13.23;;;7.00;;
25854;SDS011;13680;49.936;11.344;2022-07-23T04:48:13;8.70;;;6.35;;
25854;SDS011;13680;49.936;11.344;2022-07-23T04:50:39;10.55;;;6.75;;
25854;SDS011;13680;49.936;11.344;2022-07-23T04:53:05;14.80;;;7.03;;
25854;SDS011;13680;49.936;11.344;2022-07-23T04:55:30;11.75;;;7.28;;
25854;SDS011;13680;49.936;11.344;2022-07-23T04:57:56;10.15;;;6.60;;
25854;SDS011;13680;49.936;11.344;2022-07-23T05:00:21;9.82;;;6.70;;
25854;SDS011;13680;49.936;11.344;2022-07-23T05:02:47;10.50;;;7.15;;
25854;SDS011;13680;49.936;11.344;2022-07-23T05:05:12;16.40;;;7.18;;
25854;SDS011;13680;49.936;11.344;2022-07-23T05:07:38;9.35;;;6.72;;
25854;SDS011;13680;49.936;11.344;2022-07-23T05:10:03;11.70;;;6.85;;
25854;SDS011;13680;49.936;11.344;2022-07-23T05:12:29;9.07;;;6.75;;
25854;SDS011;13680;49.936;11.344;2022-07-23T05:14:54;8.27;;;6.93;;
25854;SDS011;13680;49.936;11.344;2022-07-23T05:17:20;11.13;;;7.10;;
25854;SDS011;13680;49.936;11.344;2022-07-23T05:19:45;10.35;;;7.22;;
25854;SDS011;13680;49.936;11.344;2022-07-23T05:22:10;9.40;;;7.97;;
25854;SDS011;13680;49.936;11.344;2022-07-23T05:24:35;9.82;;;7.28;;
25854;SDS011;13680;49.936;11.344;2022-07-23T05:27:01;13.57;;;8.23;;
25854;SDS011;13680;49.936;11.344;2022-07-23T05:29:26;10.98;;;8.00;;
25854;SDS011;13680;49.936;11.344;2022-07-23T05:31:51;11.23;;;7.97;;
25854;SDS011;13680;49.936;11.344;2022-07-23T05:34:17;15.05;;;7.80;;
25854;SDS011;13680;49.936;11.344;2022-07-23T05:36:43;14.88;;;7.70;;
25854;SDS011;13680;49.936;11.344;2022-07-23T05:39:08;13.65;;;8.07;;
25854;SDS011;13680;49.936;11.344;2022-07-23T05:41:34;12.38;;;8.07;;
25854;SDS011;13680;49.936;11.344;2022-07-23T05:43:59;14.77;;;7.55;;
25854;SDS011;13680;49.936;11.344;2022-07-23T05:46:24;9.35;;;7.82;;
25854;SDS011;13680;49.936;11.344;2022-07-23T05:48:50;10.07;;;7.60;;
25854;SDS011;13680;49.936;11.344;2022-07-23T05:51:21;8.85;;;7.63;;
25854;SDS011;13680;49.936;11.344;2022-07-23T05:53:47;10.80;;;7.03;;
25854;SDS011;13680;49.936;11.344;2022-07-23T05:56:13;11.70;;;7.55;;
25854;SDS011;13680;49.936;11.344;2022-07-23T05:58:39;12.13;;;6.68;;
25854;SDS011;13680;49.936;11.344;2022-07-23T06:01:04;13.80;;;7.38;;
25854;SDS011;13680;49.936;11.344;2022-07-23T06:03:30;11.02;;;6.88;;
25854;SDS011;13680;49.936;11.344;2022-07-23T06:05:55;9.88;;;6.80;;
25854;SDS011;13680;49.936;11.344;2022-07-23T06:08:21;9.18;;;6.35;;
25854;SDS011;13680;49.936;11.344;2022-07-23T06:10:46;10.38;;;6.65;;
25854;SDS011;13680;49.936;11.344;2022-07-23T06:13:11;8.30;;;6.63;;
25854;SDS011;13680;49.936;11.344;2022-07-23T06:15:37;12.20;;;6.70;;
25854;SDS011;13680;49.936;11.344;2022-07-23T06:18:02;10.48;;;6.57;;
25854;SDS011;13680;49.936;11.344;2022-07-23T06:20:28;14.57;;;7.18;;
25854;SDS011;13680;49.936;11.344;2022-07-23T06:22:53;9.25;;;7.38;;
25854;SDS011;13680;49.936;11.344;2022-07-23T06:25:18;10.27;;;7.05;;
25854;SDS011;13680;49.936;11.344;2022-07-23T06:27:45;10.98;;;7.07;;
25854;SDS011;13680;49.936;11.344;2022-07-23T06:30:12;8.63;;;6.90;;
25854;SDS011;13680;49.936;11.344;2022-07-23T06:32:37;10.18;;;6.75;;
25854;SDS011;13680;49.936;11.344;2022-07-23T06:35:03;8.93;;;6.97;;
25854;SDS011;13680;49.936;11.344;2022-07-23T06:37:29;10.75;;;6.30;;
25854;SDS011;13680;49.936;11.344;2022-07-23T06:39:54;12.68;;;7.15;;
25854;SDS011;13680;49.936;11.344;2022-07-23T06:42:19;10.10;;;6.28;;
25854;SDS011;13680;49.936;11.344;2022-07-23T06:44:45;8.05;;;5.93;;
25854;SDS011;13680;49.936;11.344;2022-07-23T06:47:10;8.20;;;6.00;;
25854;SDS011;13680;49.936;11.344;2022-07-23T06:49:35;8.93;;;5.93;;
25854;SDS011;13680;49.936;11.344;2022-07-23T06:52:01;12.25;;;5.57;;
25854;SDS011;13680;49.936;11.344;2022-07-23T06:54:26;9.63;;;6.53;;
25854;SDS011;13680;49.936;11.344;2022-07-23T06:56:51;10.52;;;6.85;;
25854;SDS011;13680;49.936;11.344;2022-07-23T06:59:17;11.20;;;6.97;;
25854;SDS011;13680;49.936;11.344;2022-07-23T07:01:42;9.23;;;6.72;;
25854;SDS011;13680;49.936;11.344;2022-07-23T07:04:08;7.65;;;6.53;;
25854;SDS011;13680;49.936;11.344;2022-07-23T07:06:33;13.63;;;7.72;;
25854;SDS011;13680;49.936;11.344;2022-07-23T07:08:59;10.50;;;7.10;;
25854;SDS011;13680;49.936;11.344;2022-07-23T07:11:24;9.13;;;7.65;;
25854;SDS011;13680;49.936;11.344;2022-07-23T07:13:50;8.05;;;6.68;;
25854;SDS011;13680;49.936;11.344;2022-07-23T07:16:15;17.73;;;7.05;;
25854;SDS011;13680;49.936;11.344;2022-07-23T07:18:41;11.85;;;6.40;;
25854;SDS011;13680;49.936;11.344;2022-07-23T07:21:06;12.02;;;7.18;;
25854;SDS011;13680;49.936;11.344;2022-07-23T07:23:31;13.98;;;6.97;;
25854;SDS011;13680;49.936;11.344;2022-07-23T07:25:57;9.05;;;6.75;;
25854;SDS011;13680;49.936;11.344;2022-07-23T07:28:22;9.43;;;6.32;;
25854;SDS011;13680;49.936;11.344;2022-07-23T07:30:47;9.63;;;6.80;;
25854;SDS011;13680;49.936;11.344;2022-07-23T07:33:13;10.38;;;7.13;;
25854;SDS011;13680;49.936;11.344;2022-07-23T07:35:38;8.25;;;6.57;;
25854;SDS011;13680;49.936;11.344;2022-07-23T07:38:03;11.35;;;7.35;;
25854;SDS011;13680;49.936;11.344;2022-07-23T07:40:29;12.82;;;7.40;;
25854;SDS011;13680;49.936;11.344;2022-07-23T07:42:54;11.52;;;7.07;;
25854;SDS011;13680;49.936;11.344;2022-07-23T07:45:22;12.13;;;7.13;;
25854;SDS011;13680;49.936;11.344;2022-07-23T07:47:48;9.27;;;6.93;;
25854;SDS011;13680;49.936;11.344;2022-07-23T07:50:14;10.40;;;7.28;;
25854;SDS011;13680;49.936;11.344;2022-07-23T07:52:40;7.97;;;6.93;;
25854;SDS011;13680;49.936;11.344;2022-07-23T07:55:06;11.57;;;7.28;;
25854;SDS011;13680;49.936;11.344;2022-07-23T07:57:32;12.00;;;7.00;;
25854;SDS011;13680;49.936;11.344;2022-07-23T07:59:58;9.68;;;7.05;;
25854;SDS011;13680;49.936;11.344;2022-07-23T08:02:23;10.50;;;5.90;;
25854;SDS011;13680;49.936;11.344;2022-07-23T08:04:49;11.02;;;6.80;;
25854;SDS011;13680;49.936;11.344;2022-07-23T08:07:15;8.40;;;6.35;;
25854;SDS011;13680;49.936;11.344;2022-07-23T08:09:40;8.75;;;6.63;;
25854;SDS011;13680;49.936;11.344;2022-07-23T08:12:06;7.60;;;5.63;;
25854;SDS011;13680;49.936;11.344;2022-07-23T08:14:32;8.75;;;5.80;;
25854;SDS011;13680;49.936;11.344;2022-07-23T08:16:57;7.13;;;5.55;;
25854;SDS011;13680;49.936;11.344;2022-07-23T08:19:22;6.25;;;5.43;;
25854;SDS011;13680;49.936;11.344;2022-07-23T08:21:47;8.10;;;5.88;;
25854;SDS011;13680;49.936;11.344;2022-07-23T08:24:13;7.00;;;5.65;;
25854;SDS011;13680;49.936;11.344;2022-07-23T08:26:38;9.95;;;5.63;;
25854;SDS011;13680;49.936;11.344;2022-07-23T08:29:04;7.72;;;5.65;;
25854;SDS011;13680;49.936;11.344;2022-07-23T08:31:29;14.85;;;5.63;;
25854;SDS011;13680;49.936;11.344;2022-07-23T08:33:54;7.30;;;5.50;;
25854;SDS011;13680;49.936;11.344;2022-07-23T08:36:21;11.80;;;5.85;;
25854;SDS011;13680;49.936;11.344;2022-07-23T08:38:46;7.53;;;5.38;;
25854;SDS011;13680;49.936;11.344;2022-07-23T08:41:12;8.88;;;6.05;;
25854;SDS011;13680;49.936;11.344;2022-07-23T08:43:37;11.93;;;6.43;;
25854;SDS011;13680;49.936;11.344;2022-07-23T08:46:03;10.70;;;5.82;;
25854;SDS011;13680;49.936;11.344;2022-07-23T08:48:30;9.90;;;6.28;;
25854;SDS011;13680;49.936;11.344;2022-07-23T08:50:57;8.60;;;5.90;;
25854;SDS011;13680;49.936;11.344;2022-07-23T08:53:24;9.43;;;6.18;;
25854;SDS011;13680;49.936;11.344;2022-07-23T08:55:52;11.93;;;7.00;;
25854;SDS011;13680;49.936;11.344;2022-07-23T08:58:20;9.35;;;6.40;;
25854;SDS011;13680;49.936;11.344;2022-07-23T09:00:47;7.00;;;6.25;;
25854;SDS011;13680;49.936;11.344;2022-07-23T09:03:17;8.07;;;6.45;;
25854;SDS011;13680;49.936;11.344;2022-07-23T09:05:45;7.75;;;6.88;;
25854;SDS011;13680;49.936;11.344;2022-07-23T09:10:54;7.72;;;6.40;;
25854;SDS011;13680;49.936;11.344;2022-07-23T09:13:23;11.52;;;6.68;;
25854;SDS011;13680;49.936;11.344;2022-07-23T09:15:57;9.70;;;6.47;;
25854;SDS011;13680;49.936;11.344;2022-07-23T09:18:36;7.45;;;6.43;;
25854;SDS011;13680;49.936;11.344;2022-07-23T09:23:41;10.63;;;6.78;;
25854;SDS011;13680;49.936;11.344;2022-07-23T09:28:51;11.90;;;5.95;;
25854;SDS011;13680;49.936;11.344;2022-07-23T09:31:18;9.35;;;5.95;;
25854;SDS011;13680;49.936;11.344;2022-07-23T09:33:43;8.90;;;5.88;;
25854;SDS011;13680;49.936;11.344;2022-07-23T09:36:09;9.20;;;6.65;;
25854;SDS011;13680;49.936;11.344;2022-07-23T09:38:34;11.18;;;7.25;;
25854;SDS011;13680;49.936;11.344;2022-07-23T09:41:13;11.63;;;6.80;;
25854;SDS011;13680;49.936;11.344;2022-07-23T09:43:39;9.68;;;6.63;;
25854;SDS011;13680;49.936;11.344;2022-07-23T09:46:21;10.55;;;5.90;;
25854;SDS011;13680;49.936;11.344;2022-07-23T09:48:54;11.98;;;6.60;;
25854;SDS011;13680;49.936;11.344;2022-07-23T09:51:21;9.38;;;6.28;;
25854;SDS011;13680;49.936;11.344;2022-07-23T09:54:02;8.20;;;5.63;;
25854;SDS011;13680;49.936;11.344;2022-07-23T09:56:28;10.88;;;6.05;;
25854;SDS011;13680;49.936;11.344;2022-07-23T09:58:54;8.63;;;6.15;;
25854;SDS011;13680;49.936;11.344;2022-07-23T10:01:48;9.85;;;6.00;;
25854;SDS011;13680;49.936;11.344;2022-07-23T10:04:15;9.57;;;6.70;;
25854;SDS011;13680;49.936;11.344;2022-07-23T10:06:42;13.60;;;5.80;;
25854;SDS011;13680;49.936;11.344;2022-07-23T10:09:08;9.32;;;5.57;;
25854;SDS011;13680;49.936;11.344;2022-07-23T10:11:37;8.20;;;6.15;;
25854;SDS011;13680;49.936;11.344;2022-07-23T10:14:03;8.13;;;5.55;;
25854;SDS011;13680;49.936;11.344;2022-07-23T10:16:29;8.07;;;5.45;;
25854;SDS011;13680;49.936;11.344;2022-07-23T10:18:55;9.10;;;5.95;;
25854;SDS011;13680;49.936;11.344;2022-07-23T10:21:25;6.63;;;5.22;;
25854;SDS011;13680;49.936;11.344;2022-07-23T10:30:18;9.30;;;5.80;;
25854;SDS011;13680;49.936;11.344;2022-07-23T10:32:56;14.43;;;6.00;;
25854;SDS011;13680;49.936;11.344;2022-07-23T10:36:07;7.55;;;5.20;;
25854;SDS011;13680;49.936;11.344;2022-07-23T10:38:50;12.63;;;5.18;;
25854;SDS011;13680;49.936;11.344;2022-07-23T10:41:30;7.25;;;5.53;;
25854;SDS011;13680;49.936;11.344;2022-07-23T10:44:10;9.90;;;5.78;;
25854;SDS011;13680;49.936;11.344;2022-07-23T10:47:20;10.20;;;5.97;;
25854;SDS011;13680;49.936;11.344;2022-07-23T10:50:17;7.28;;;5.78;;
25854;SDS011;13680;49.936;11.344;2022-07-23T10:52:42;11.10;;;6.15;;
25854;SDS011;13680;49.936;11.344;2022-07-23T10:57:56;10.57;;;6.40;;
25854;SDS011;13680;49.936;11.344;2022-07-23T11:00:22;11.95;;;7.25;;
25854;SDS011;13680;49.936;11.344;2022-07-23T11:02:50;11.43;;;6.35;;
25854;SDS011;13680;49.936;11.344;2022-07-23T11:05:21;11.32;;;7.40;;
25854;SDS011;13680;49.936;11.344;2022-07-23T11:10:31;9.35;;;7.75;;
25854;SDS011;13680;49.936;11.344;2022-07-23T11:24:05;9.90;;;6.80;;
25854;SDS011;13680;49.936;11.344;2022-07-23T11:37:02;11.68;;;7.10;;
25854;SDS011;13680;49.936;11.344;2022-07-23T11:39:29;10.52;;;6.55;;
25854;SDS011;13680;49.936;11.344;2022-07-23T11:41:56;7.50;;;6.28;;
25854;SDS011;13680;49.936;11.344;2022-07-23T11:44:29;7.55;;;6.30;;
25854;SDS011;13680;49.936;11.344;2022-07-23T11:46:58;12.00;;;6.55;;
25854;SDS011;13680;49.936;11.344;2022-07-23T11:49:25;15.43;;;6.38;;
25854;SDS011;13680;49.936;11.344;2022-07-23T11:52:13;8.82;;;6.80;;
25854;SDS011;13680;49.936;11.344;2022-07-23T11:54:54;9.10;;;6.18;;
25854;SDS011;13680;49.936;11.344;2022-07-23T11:57:20;8.00;;;6.50;;
25854;SDS011;13680;49.936;11.344;2022-07-23T11:59:51;7.10;;;6.00;;
25854;SDS011;13680;49.936;11.344;2022-07-23T12:02:21;8.10;;;5.70;;
25854;SDS011;13680;49.936;11.344;2022-07-23T12:04:48;14.18;;;6.53;;
25854;SDS011;13680;49.936;11.344;2022-07-23T12:07:25;10.60;;;6.53;;
25854;SDS011;13680;49.936;11.344;2022-07-23T12:09:52;11.40;;;6.47;;
25854;SDS011;13680;49.936;11.344;2022-07-23T12:12:18;9.35;;;5.78;;
25854;SDS011;13680;49.936;11.344;2022-07-23T12:14:48;8.25;;;5.82;;
25854;SDS011;13680;49.936;11.344;2022-07-23T12:17:21;12.13;;;6.35;;
25854;SDS011;13680;49.936;11.344;2022-07-23T12:19:54;8.18;;;5.60;;
25854;SDS011;13680;49.936;11.344;2022-07-23T12:22:20;7.80;;;5.68;;
25854;SDS011;13680;49.936;11.344;2022-07-23T12:24:58;8.00;;;5.25;;
25854;SDS011;13680;49.936;11.344;2022-07-23T12:27:25;8.45;;;5.45;;
25854;SDS011;13680;49.936;11.344;2022-07-23T12:29:51;15.98;;;5.63;;
25854;SDS011;13680;49.936;11.344;2022-07-23T12:32:17;8.15;;;5.88;;
25854;SDS011;13680;49.936;11.344;2022-07-23T12:34:45;8.98;;;4.95;;
25854;SDS011;13680;49.936;11.344;2022-07-23T12:42:47;7.43;;;5.68;;
25854;SDS011;13680;49.936;11.344;2022-07-23T12:45:14;10.25;;;5.50;;
25854;SDS011;13680;49.936;11.344;2022-07-23T12:47:56;8.45;;;4.65;;
25854;SDS011;13680;49.936;11.344;2022-07-23T12:55:37;7.13;;;5.55;;
25854;SDS011;13680;49.936;11.344;2022-07-23T12:58:07;9.45;;;5.22;;
25854;SDS011;13680;49.936;11.344;2022-07-23T13:03:38;7.18;;;4.50;;
25854;SDS011;13680;49.936;11.344;2022-07-23T13:06:07;6.00;;;4.93;;
25854;SDS011;13680;49.936;11.344;2022-07-23T13:08:34;10.30;;;5.07;;
25854;SDS011;13680;49.936;11.344;2022-07-23T13:11:02;9.25;;;5.72;;
25854;SDS011;13680;49.936;11.344;2022-07-23T13:13:28;5.97;;;4.88;;
25854;SDS011;13680;49.936;11.344;2022-07-23T13:15:55;5.70;;;4.65;;
25854;SDS011;13680;49.936;11.344;2022-07-23T13:18:21;9.50;;;4.85;;
25854;SDS011;13680;49.936;11.344;2022-07-23T13:20:47;10.77;;;5.15;;
25854;SDS011;13680;49.936;11.344;2022-07-23T13:23:14;7.50;;;4.50;;
25854;SDS011;13680;49.936;11.344;2022-07-23T13:25:40;6.25;;;4.90;;
25854;SDS011;13680;49.936;11.344;2022-07-23T13:28:06;10.60;;;4.07;;
25854;SDS011;13680;49.936;11.344;2022-07-23T13:30:31;9.13;;;4.57;;
25854;SDS011;13680;49.936;11.344;2022-07-23T13:32:57;7.45;;;4.30;;
25854;SDS011;13680;49.936;11.344;2022-07-23T13:35:23;6.88;;;4.45;;
25854;SDS011;13680;49.936;11.344;2022-07-23T13:37:49;7.70;;;4.53;;
25854;SDS011;13680;49.936;11.344;2022-07-23T13:40:15;7.00;;;5.00;;
25854;SDS011;13680;49.936;11.344;2022-07-23T13:42:41;8.95;;;5.07;;
25854;SDS011;13680;49.936;11.344;2022-07-23T13:45:06;9.52;;;4.78;;
25854;SDS011;13680;49.936;11.344;2022-07-23T13:47:32;8.38;;;4.53;;
25854;SDS011;13680;49.936;11.344;2022-07-23T13:49:58;11.70;;;4.65;;
25854;SDS011;13680;49.936;11.344;2022-07-23T13:52:23;6.30;;;4.57;;
25854;SDS011;13680;49.936;11.344;2022-07-23T13:54:49;6.47;;;4.82;;
25854;SDS011;13680;49.936;11.344;2022-07-23T13:57:15;6.57;;;4.80;;
25854;SDS011;13680;49.936;11.344;2022-07-23T13:59:40;6.22;;;4.60;;
25854;SDS011;13680;49.936;11.344;2022-07-23T14:02:06;5.75;;;4.18;;
25854;SDS011;13680;49.936;11.344;2022-07-23T14:04:32;6.47;;;4.43;;
25854;SDS011;13680;49.936;11.344;2022-07-23T14:06:58;6.78;;;4.82;;
25854;SDS011;13680;49.936;11.344;2022-07-23T14:09:23;5.68;;;4.38;;
25854;SDS011;13680;49.936;11.344;2022-07-23T14:11:50;6.03;;;4.57;;
25854;SDS011;13680;49.936;11.344;2022-07-23T14:14:16;9.75;;;4.60;;
25854;SDS011;13680;49.936;11.344;2022-07-23T14:16:42;8.55;;;4.43;;
25854;SDS011;13680;49.936;11.344;2022-07-23T14:19:08;6.75;;;4.65;;
25854;SDS011;13680;49.936;11.344;2022-07-23T14:21:33;11.35;;;4.57;;
25854;SDS011;13680;49.936;11.344;2022-07-23T14:23:58;14.15;;;4.72;;
25854;SDS011;13680;49.936;11.344;2022-07-23T14:26:24;6.00;;;4.22;;
25854;SDS011;13680;49.936;11.344;2022-07-23T14:28:49;9.15;;;4.28;;
25854;SDS011;13680;49.936;11.344;2022-07-23T14:31:15;7.32;;;4.60;;
25854;SDS011;13680;49.936;11.344;2022-07-23T14:33:40;9.82;;;4.50;;
25854;SDS011;13680;49.936;11.344;2022-07-23T14:36:06;5.28;;;4.13;;
25854;SDS011;13680;49.936;11.344;2022-07-23T14:38:31;8.45;;;4.32;;
25854;SDS011;13680;49.936;11.344;2022-07-23T14:40:57;8.82;;;4.50;;
25854;SDS011;13680;49.936;11.344;2022-07-23T14:43:22;8.13;;;4.47;;
25854;SDS011;13680;49.936;11.344;2022-07-23T14:45:48;9.13;;;4.50;;
25854;SDS011;13680;49.936;11.344;2022-07-23T14:48:13;6.53;;;4.93;;
25854;SDS011;13680;49.936;11.344;2022-07-23T14:50:39;8.30;;;4.80;;
25854;SDS011;13680;49.936;11.344;2022-07-23T14:53:04;7.47;;;4.05;;
25854;SDS011;13680;49.936;11.344;2022-07-23T14:55:31;6.85;;;4.25;;
25854;SDS011;13680;49.936;11.344;2022-07-23T14:57:57;5.20;;;4.20;;
25854;SDS011;13680;49.936;11.344;2022-07-23T15:00:22;7.13;;;4.32;;
25854;SDS011;13680;49.936;11.344;2022-07-23T15:02:48;4.82;;;4.25;;
25854;SDS011;13680;49.936;11.344;2022-07-23T15:05:13;7.82;;;4.30;;
25854;SDS011;13680;49.936;11.344;2022-07-23T15:07:38;6.28;;;4.35;;
25854;SDS011;13680;49.936;11.344;2022-07-23T15:10:04;5.35;;;4.40;;
25854;SDS011;13680;49.936;11.344;2022-07-23T15:12:30;6.07;;;4.32;;
25854;SDS011;13680;49.936;11.344;2022-07-23T15:14:55;5.80;;;4.18;;
25854;SDS011;13680;49.936;11.344;2022-07-23T15:17:21;9.85;;;4.47;;
25854;SDS011;13680;49.936;11.344;2022-07-23T15:19:46;10.40;;;4.68;;
25854;SDS011;13680;49.936;11.344;2022-07-23T15:22:12;7.65;;;4.72;;